createdAt,value
2018-09-25T00:00:23.966Z,103396.81
2018-09-25T00:01:33.708Z,103399.05
2018-09-25T00:02:43.368Z,103393.36
2018-09-25T00:03:52.706Z,103389.09
2018-09-25T00:05:02.192Z,103395.19
2018-09-25T00:06:11.885Z,103391.86
2018-09-25T00:07:21.239Z,103401.91
2018-09-25T00:08:30.538Z,103393.31
2018-09-25T00:09:39.816Z,103407.92
2018-09-25T00:10:49.093Z,103408.04
2018-09-25T00:11:58.401Z,103410.33
2018-09-25T00:13:07.657Z,103412.19
2018-09-25T00:14:17.473Z,103410.06
2018-09-25T00:15:26.806Z,103411.84
2018-09-25T00:16:36.187Z,103409.23
2018-09-25T00:17:45.523Z,103406.17
2018-09-25T00:18:54.863Z,103409.31
2018-09-25T00:20:04.173Z,103411.55
2018-09-25T00:21:13.536Z,103408.11
2018-09-25T00:22:22.842Z,103413.80
2018-09-25T00:23:32.108Z,103411.67
2018-09-25T00:24:41.457Z,103413.91
2018-09-25T00:25:51.044Z,103411.80
2018-09-25T00:27:00.256Z,103407.28
2018-09-25T00:28:09.602Z,103413.05
2018-09-25T00:29:18.893Z,103404.62
2018-09-25T00:30:28.176Z,103407.62
2018-09-25T00:31:37.548Z,103409.81
2018-09-25T00:32:46.892Z,103410.23
2018-09-25T00:33:56.149Z,103411.55
2018-09-25T00:35:05.537Z,103411.55
2018-09-25T00:36:15.025Z,103412.88
2018-09-25T00:37:24.383Z,103410.69
2018-09-25T00:38:33.675Z,103416.07
2018-09-25T00:39:42.935Z,103415.12
2018-09-25T00:40:52.484Z,103408.60
2018-09-25T00:42:01.907Z,103431.59
2018-09-25T00:43:11.344Z,103422.30
2018-09-25T00:44:20.876Z,103415.66
2018-09-25T00:45:30.188Z,103418.31
2018-09-25T00:46:39.601Z,103426.73
2018-09-25T00:47:48.854Z,103422.34
2018-09-25T00:48:58.174Z,103425.52
2018-09-25T00:50:07.636Z,103422.91
2018-09-25T00:51:17.091Z,103425.68
2018-09-25T00:52:26.539Z,103425.80
2018-09-25T00:53:35.939Z,103421.81
2018-09-25T00:54:45.325Z,103424.09
2018-09-25T00:55:54.740Z,103418.83
2018-09-25T00:57:04.157Z,103417.04
2018-09-25T00:58:13.504Z,103416.63
2018-09-25T00:59:22.996Z,103419.16
2018-09-25T01:00:32.510Z,103421.44
2018-09-25T01:01:42.145Z,103419.28
2018-09-25T01:02:51.551Z,103419.70
2018-09-25T01:04:01.008Z,103424.09
2018-09-25T01:05:10.653Z,103422.34
2018-09-25T01:06:20.371Z,103427.70
2018-09-25T01:07:29.929Z,103426.91
2018-09-25T01:08:39.135Z,103428.27
2018-09-25T01:09:48.488Z,103433.23
2018-09-25T01:10:58.114Z,103441.27
2018-09-25T01:12:07.660Z,103434.75
2018-09-25T01:13:17.191Z,103427.28
2018-09-25T01:14:26.716Z,103436.20
2018-09-25T01:15:36.033Z,103438.02
2018-09-25T01:16:45.298Z,103429.71
2018-09-25T01:17:54.781Z,103438.44
2018-09-25T01:19:04.057Z,103440.17
2018-09-25T01:20:13.162Z,103437.91
2018-09-25T01:21:22.467Z,103441.02
2018-09-25T01:22:31.897Z,103440.55
2018-09-25T01:23:41.644Z,103448.52
2018-09-25T01:24:50.931Z,103445.97
2018-09-25T01:26:00.157Z,103446.50
2018-09-25T01:27:09.458Z,103455.38
2018-09-25T01:28:18.811Z,103448.85
2018-09-25T01:29:29.991Z,103451.09
2018-09-25T01:30:39.335Z,103452.42
2018-09-25T01:31:48.736Z,103461.32
2018-09-25T01:32:58.261Z,103454.69
2018-09-25T01:34:07.589Z,103454.27
2018-09-25T01:35:16.945Z,103446.31
2018-09-25T01:36:26.453Z,103448.89
2018-09-25T01:37:35.855Z,103446.73
2018-09-25T01:38:46.191Z,103450.70
2018-09-25T01:39:55.513Z,103453.81
2018-09-25T01:41:04.819Z,103448.09
2018-09-25T01:42:14.178Z,103454.27
2018-09-25T01:43:23.555Z,103458.25
2018-09-25T01:44:33.377Z,103457.73
2018-09-25T01:45:42.870Z,103455.59
2018-09-25T01:46:52.303Z,103452.95
2018-09-25T01:48:01.582Z,103451.16
2018-09-25T01:49:11.044Z,103449.84
2018-09-25T01:50:20.384Z,103449.38
2018-09-25T01:51:29.728Z,103450.30
2018-09-25T01:52:39.047Z,103456.47
2018-09-25T01:53:48.252Z,103453.81
2018-09-25T01:54:57.579Z,103450.30
2018-09-25T01:56:07.268Z,103454.27
2018-09-25T01:57:16.718Z,103451.20
2018-09-25T01:58:26.104Z,103458.78
2018-09-25T01:59:35.449Z,103457.95
2018-09-25T02:00:44.705Z,103459.80
2018-09-25T02:01:53.998Z,103462.56
2018-09-25T02:03:03.396Z,103463.05
2018-09-25T02:04:12.936Z,103464.49
2018-09-25T02:05:22.761Z,103461.08
2018-09-25T02:06:32.313Z,103458.50
2018-09-25T02:07:42.251Z,103461.15
2018-09-25T02:08:51.616Z,103454.52
2018-09-25T02:10:00.977Z,103466.84
2018-09-25T02:11:10.329Z,103452.25
2018-09-25T02:12:19.800Z,103451.34
2018-09-25T02:13:29.308Z,103454.83
2018-09-25T02:14:38.763Z,103452.21
2018-09-25T02:15:48.150Z,103448.69
2018-09-25T02:16:57.400Z,103446.03
2018-09-25T02:18:06.672Z,103448.69
2018-09-25T02:19:16.054Z,103447.36
2018-09-25T02:20:25.388Z,103450.43
2018-09-25T02:21:34.745Z,103451.34
2018-09-25T02:22:44.105Z,103446.94
2018-09-25T02:23:53.650Z,103443.03
2018-09-25T02:25:02.989Z,103443.49
2018-09-25T02:26:12.287Z,103439.09
2018-09-25T02:27:21.643Z,103443.08
2018-09-25T02:28:31.090Z,103439.52
2018-09-25T02:29:40.341Z,103436.45
2018-09-25T02:30:49.591Z,103438.19
2018-09-25T02:31:58.976Z,103438.19
2018-09-25T02:33:08.311Z,103440.38
2018-09-25T02:34:17.694Z,103433.80
2018-09-25T02:35:27.105Z,103438.64
2018-09-25T02:36:36.506Z,103437.39
2018-09-25T02:37:46.032Z,103439.63
2018-09-25T02:38:55.507Z,103437.42
2018-09-25T02:40:04.799Z,103444.92
2018-09-25T02:41:14.110Z,103436.09
2018-09-25T02:42:23.626Z,103434.77
2018-09-25T02:43:32.956Z,103433.90
2018-09-25T02:44:42.556Z,103440.98
2018-09-25T02:45:51.879Z,103440.15
2018-09-25T02:47:01.252Z,103438.41
2018-09-25T02:48:10.598Z,103437.98
2018-09-25T02:49:19.969Z,103436.66
2018-09-25T02:50:29.612Z,103437.12
2018-09-25T02:51:38.972Z,103428.78
2018-09-25T02:52:48.251Z,103426.05
2018-09-25T02:53:57.532Z,103427.00
2018-09-25T02:55:06.905Z,103426.13
2018-09-25T02:56:16.263Z,103427.00
2018-09-25T02:57:25.996Z,103421.28
2018-09-25T02:58:35.433Z,103427.91
2018-09-25T02:59:44.739Z,103421.39
2018-09-25T03:00:54.002Z,103423.16
2018-09-25T03:02:03.234Z,103428.02
2018-09-25T03:03:12.574Z,103434.69
2018-09-25T03:04:21.987Z,103428.99
2018-09-25T03:05:31.587Z,103428.51
2018-09-25T03:06:40.817Z,103431.16
2018-09-25T03:07:50.185Z,103428.12
2018-09-25T03:08:59.793Z,103429.91
2018-09-25T03:10:09.116Z,103429.94
2018-09-25T03:11:18.449Z,103426.48
2018-09-25T03:12:27.831Z,103431.72
2018-09-25T03:13:37.270Z,103430.88
2018-09-25T03:14:46.776Z,103430.02
2018-09-25T03:15:56.132Z,103431.38
2018-09-25T03:17:05.449Z,103431.45
2018-09-25T03:18:14.664Z,103429.73
2018-09-25T03:19:24.136Z,103431.06
2018-09-25T03:20:33.417Z,103431.17
2018-09-25T03:21:42.734Z,103430.27
2018-09-25T03:22:52.504Z,103434.69
2018-09-25T03:24:02.045Z,103431.70
2018-09-25T03:25:11.711Z,103438.33
2018-09-25T03:26:21.124Z,103433.55
2018-09-25T03:27:30.566Z,103439.75
2018-09-25T03:28:40.108Z,103435.81
2018-09-25T03:29:49.543Z,103446.03
2018-09-25T03:30:59.010Z,103443.03
2018-09-25T03:32:08.528Z,103440.45
2018-09-25T03:33:17.878Z,103446.27
2018-09-25T03:34:27.340Z,103438.84
2018-09-25T03:35:36.766Z,103448.16
2018-09-25T03:36:46.271Z,103446.90
2018-09-25T03:37:55.661Z,103453.63
2018-09-25T03:39:05.291Z,103446.16
2018-09-25T03:40:14.562Z,103443.16
2018-09-25T03:41:24.120Z,103444.03
2018-09-25T03:42:33.768Z,103445.39
2018-09-25T03:43:43.046Z,103441.39
2018-09-25T03:44:52.411Z,103437.80
2018-09-25T03:46:01.796Z,103436.02
2018-09-25T03:47:11.189Z,103436.86
2018-09-25T03:48:20.510Z,103442.09
2018-09-25T03:49:29.803Z,103436.30
2018-09-25T03:50:39.100Z,103438.01
2018-09-25T03:51:48.557Z,103441.08
2018-09-25T03:52:58.215Z,103434.45
2018-09-25T03:54:07.581Z,103435.78
2018-09-25T03:55:17.007Z,103435.36
2018-09-25T03:56:26.737Z,103432.25
2018-09-25T03:57:36.236Z,103434.45
2018-09-25T03:58:45.705Z,103438.39
2018-09-25T03:59:55.153Z,103434.88
2018-09-25T04:01:04.533Z,103432.61
2018-09-25T04:02:14.156Z,103435.25
2018-09-25T04:03:23.363Z,103434.42
2018-09-25T04:04:32.709Z,103436.20
2018-09-25T04:05:42.200Z,103436.69
2018-09-25T04:06:51.476Z,103432.33
2018-09-25T04:08:00.758Z,103437.20
2018-09-25T04:09:11.770Z,103433.75
2018-09-25T04:10:21.230Z,103436.41
2018-09-25T04:11:30.559Z,103432.50
2018-09-25T04:12:39.811Z,103428.52
2018-09-25T04:13:49.103Z,103436.47
2018-09-25T04:14:58.422Z,103426.39
2018-09-25T04:16:07.764Z,103430.82
2018-09-25T04:17:17.167Z,103432.59
2018-09-25T04:18:26.514Z,103430.89
2018-09-25T04:19:35.881Z,103431.77
2018-09-25T04:20:45.226Z,103433.96
2018-09-25T04:21:54.937Z,103436.19
2018-09-25T04:23:04.265Z,103429.11
2018-09-25T04:24:13.596Z,103432.22
2018-09-25T04:25:22.914Z,103435.73
2018-09-25T04:26:32.305Z,103438.39
2018-09-25T04:27:41.680Z,103435.77
2018-09-25T04:28:51.506Z,103434.94
2018-09-25T04:30:00.856Z,103439.81
2018-09-25T04:31:10.144Z,103434.52
2018-09-25T04:32:19.518Z,103442.47
2018-09-25T04:33:28.876Z,103444.69
2018-09-25T04:34:38.163Z,103443.82
2018-09-25T04:35:47.558Z,103450.94
2018-09-25T04:36:56.919Z,103446.13
2018-09-25T04:38:06.539Z,103447.52
2018-09-25T04:39:15.814Z,103447.09
2018-09-25T04:40:25.405Z,103449.73
2018-09-25T04:41:34.881Z,103451.59
2018-09-25T04:42:44.270Z,103448.45
2018-09-25T04:43:53.536Z,103452.48
2018-09-25T04:45:02.850Z,103455.14
2018-09-25T04:46:12.187Z,103456.47
2018-09-25T04:47:21.580Z,103449.42
2018-09-25T04:48:30.966Z,103456.50
2018-09-25T04:49:40.265Z,103458.24
2018-09-25T04:50:49.760Z,103456.11
2018-09-25T04:51:59.266Z,103454.79
2018-09-25T04:53:08.726Z,103459.22
2018-09-25T04:54:18.195Z,103458.34
2018-09-25T04:55:27.604Z,103466.29
2018-09-25T04:56:37.087Z,103468.94
2018-09-25T04:57:46.635Z,103461.89
2018-09-25T04:58:55.977Z,103461.51
2018-09-25T05:00:05.335Z,103469.84
2018-09-25T05:01:14.818Z,103469.45
2018-09-25T05:02:24.248Z,103466.80
2018-09-25T05:03:33.640Z,103470.78
2018-09-25T05:04:42.939Z,103471.17
2018-09-25T05:05:52.525Z,103469.84
2018-09-25T05:07:01.798Z,103480.86
2018-09-25T05:08:11.164Z,103471.13
2018-09-25T05:09:20.537Z,103472.39
2018-09-25T05:10:29.753Z,103467.94
2018-09-25T05:11:39.161Z,103465.67
2018-09-25T05:12:48.436Z,103470.52
2018-09-25T05:13:57.687Z,103473.17
2018-09-25T05:15:07.226Z,103474.91
2018-09-25T05:16:16.698Z,103475.36
2018-09-25T05:17:26.060Z,103477.56
2018-09-25T05:18:35.398Z,103473.62
2018-09-25T05:19:44.940Z,103482.50
2018-09-25T05:20:54.336Z,103480.73
2018-09-25T05:22:03.874Z,103477.23
2018-09-25T05:23:13.259Z,103478.56
2018-09-25T05:24:22.589Z,103472.00
2018-09-25T05:25:31.918Z,103479.95
2018-09-25T05:26:41.219Z,103479.08
2018-09-25T05:27:50.488Z,103476.02
2018-09-25T05:28:59.748Z,103482.64
2018-09-25T05:30:09.137Z,103494.55
2018-09-25T05:31:18.500Z,103498.08
2018-09-25T05:32:27.836Z,103501.60
2018-09-25T05:33:37.316Z,103497.63
2018-09-25T05:34:46.654Z,103503.80
2018-09-25T05:35:56.029Z,103505.57
2018-09-25T05:37:05.483Z,103505.13
2018-09-25T05:38:15.110Z,103503.80
2018-09-25T05:39:24.482Z,103504.64
2018-09-25T05:40:33.949Z,103508.16
2018-09-25T05:41:43.279Z,103505.51
2018-09-25T05:42:52.689Z,103504.19
2018-09-25T05:44:03.238Z,103506.83
2018-09-25T05:45:12.724Z,103513.84
2018-09-25T05:46:22.159Z,103507.22
2018-09-25T05:47:31.640Z,103501.41
2018-09-25T05:48:41.232Z,103498.69
2018-09-25T05:49:50.560Z,103502.17
2018-09-25T05:50:59.854Z,103494.65
2018-09-25T05:52:09.220Z,103492.84
2018-09-25T05:53:18.709Z,103491.94
2018-09-25T05:54:28.420Z,103499.85
2018-09-25T05:55:38.116Z,103511.70
2018-09-25T05:56:47.395Z,103504.63
2018-09-25T05:57:56.706Z,103507.28
2018-09-25T05:59:06.028Z,103510.39
2018-09-25T06:00:15.597Z,103509.06
2018-09-25T06:01:24.936Z,103507.67
2018-09-25T06:02:34.280Z,103518.72
2018-09-25T06:03:43.659Z,103510.32
2018-09-25T06:04:52.904Z,103512.06
2018-09-25T06:06:02.576Z,103517.30
2018-09-25T06:07:12.028Z,103512.94
2018-09-25T06:08:21.408Z,103514.61
2018-09-25T06:09:30.816Z,103518.63
2018-09-25T06:10:40.225Z,103519.88
2018-09-25T06:11:49.728Z,103519.39
2018-09-25T06:12:59.059Z,103519.36
2018-09-25T06:14:08.496Z,103514.00
2018-09-25T06:15:17.863Z,103513.06
2018-09-25T06:16:27.271Z,103515.70
2018-09-25T06:17:36.845Z,103510.34
2018-09-25T06:18:46.482Z,103508.98
2018-09-25T06:19:55.755Z,103512.44
2018-09-25T06:21:05.032Z,103511.95
2018-09-25T06:22:14.491Z,103506.12
2018-09-25T06:23:23.798Z,103520.16
2018-09-25T06:24:33.278Z,103511.75
2018-09-25T06:25:42.862Z,103512.13
2018-09-25T06:26:52.349Z,103519.17
2018-09-25T06:28:01.776Z,103514.30
2018-09-25T06:29:11.130Z,103515.17
2018-09-25T06:30:20.554Z,103523.86
2018-09-25T06:31:29.978Z,103518.55
2018-09-25T06:32:39.446Z,103523.38
2018-09-25T06:33:48.762Z,103521.94
2018-09-25T06:34:58.313Z,103522.36
2018-09-25T06:36:07.637Z,103523.20
2018-09-25T06:37:17.003Z,103521.42
2018-09-25T06:38:26.280Z,103521.84
2018-09-25T06:39:35.599Z,103524.91
2018-09-25T06:40:44.997Z,103524.39
2018-09-25T06:41:54.399Z,103518.28
2018-09-25T06:43:03.683Z,103522.54
2018-09-25T06:44:12.998Z,103524.28
2018-09-25T06:45:22.375Z,103523.38
2018-09-25T06:46:31.620Z,103523.30
2018-09-25T06:47:40.959Z,103529.09
2018-09-25T06:48:50.341Z,103527.25
2018-09-25T06:49:59.705Z,103527.67
2018-09-25T06:51:08.986Z,103530.25
2018-09-25T06:52:18.368Z,103531.65
2018-09-25T06:53:27.667Z,103535.10
2018-09-25T06:54:37.002Z,103535.91
2018-09-25T06:55:46.235Z,103531.47
2018-09-25T06:56:55.677Z,103538.06
2018-09-25T06:58:05.081Z,103538.87
2018-09-25T06:59:14.477Z,103534.96
2018-09-25T07:00:24.108Z,103540.51
2018-09-25T07:01:33.924Z,103543.96
2018-09-25T07:02:43.475Z,103540.41
2018-09-25T07:03:53.074Z,103543.86
2018-09-25T07:05:02.477Z,103545.08
2018-09-25T07:06:11.955Z,103546.78
2018-09-25T07:07:21.496Z,103548.92
2018-09-25T07:08:31.018Z,103548.01
2018-09-25T07:09:40.386Z,103549.27
2018-09-25T07:10:49.725Z,103556.73
2018-09-25T07:11:59.115Z,103556.66
2018-09-25T07:13:08.558Z,103566.78
2018-09-25T07:14:17.979Z,103566.30
2018-09-25T07:15:27.538Z,103570.23
2018-09-25T07:16:36.949Z,103566.22
2018-09-25T07:17:46.467Z,103565.73
2018-09-25T07:18:56.042Z,103563.92
2018-09-25T07:20:05.380Z,103565.17
2018-09-25T07:21:14.835Z,103569.53
2018-09-25T07:22:24.125Z,103567.27
2018-09-25T07:23:33.592Z,103573.80
2018-09-25T07:24:43.295Z,103580.84
2018-09-25T07:25:53.023Z,103581.64
2018-09-25T07:27:02.458Z,103577.17
2018-09-25T07:28:11.763Z,103580.62
2018-09-25T07:29:21.450Z,103584.95
2018-09-25T07:30:31.422Z,103580.48
2018-09-25T07:31:41.502Z,103576.88
2018-09-25T07:32:51.228Z,103586.06
2018-09-25T07:34:00.790Z,103582.50
2018-09-25T07:35:10.359Z,103578.09
2018-09-25T07:36:21.102Z,103588.98
2018-09-25T07:37:30.797Z,103586.27
2018-09-25T07:38:40.219Z,103589.75
2018-09-25T07:39:50.297Z,103586.15
2018-09-25T07:40:59.822Z,103590.55
2018-09-25T07:42:09.800Z,103586.98
2018-09-25T07:43:19.682Z,103594.42
2018-09-25T07:44:30.308Z,103596.16
2018-09-25T07:45:39.716Z,103593.92
2018-09-25T07:46:50.346Z,103589.87
2018-09-25T07:48:00.441Z,103593.81
2018-09-25T07:49:10.277Z,103595.59
2018-09-25T07:50:20.339Z,103597.23
2018-09-25T07:51:29.759Z,103597.69
2018-09-25T07:52:39.235Z,103598.48
2018-09-25T07:53:48.633Z,103600.61
2018-09-25T07:54:58.017Z,103599.70
2018-09-25T07:56:07.528Z,103600.12
2018-09-25T07:57:16.874Z,103604.45
2018-09-25T07:58:26.236Z,103603.08
2018-09-25T07:59:35.623Z,103598.15
2018-09-25T08:00:44.904Z,103604.30
2018-09-25T08:01:54.309Z,103604.67
2018-09-25T08:03:03.827Z,103606.42
2018-09-25T08:04:13.209Z,103617.05
2018-09-25T08:05:22.625Z,103610.82
2018-09-25T08:06:32.403Z,103612.53
2018-09-25T08:07:41.872Z,103616.05
2018-09-25T08:08:51.724Z,103620.45
2018-09-25T08:10:00.987Z,103620.84
2018-09-25T08:11:10.303Z,103622.16
2018-09-25T08:12:19.588Z,103615.94
2018-09-25T08:13:29.035Z,103616.36
2018-09-25T08:14:38.500Z,103618.06
2018-09-25T08:15:47.990Z,103623.76
2018-09-25T08:16:57.253Z,103620.61
2018-09-25T08:18:06.737Z,103625.92
2018-09-25T08:19:16.443Z,103619.28
2018-09-25T08:20:25.802Z,103627.55
2018-09-25T08:21:35.399Z,103626.22
2018-09-25T08:22:45.987Z,103628.84
2018-09-25T08:23:55.321Z,103632.71
2018-09-25T08:25:04.831Z,103636.24
2018-09-25T08:26:14.231Z,103637.45
2018-09-25T08:27:23.745Z,103636.13
2018-09-25T08:28:33.123Z,103642.20
2018-09-25T08:29:42.467Z,103643.04
2018-09-25T08:30:51.710Z,103651.31
2018-09-25T08:32:01.064Z,103649.53
2018-09-25T08:33:10.324Z,103647.66
2018-09-25T08:34:19.820Z,103638.09
2018-09-25T08:35:29.210Z,103638.73
2018-09-25T08:36:38.516Z,103643.52
2018-09-25T08:37:47.926Z,103647.92
2018-09-25T08:38:57.764Z,103644.73
2018-09-25T08:40:07.033Z,103645.95
2018-09-25T08:41:16.941Z,103642.83
2018-09-25T08:42:26.286Z,103643.70
2018-09-25T08:43:35.711Z,103652.44
2018-09-25T08:44:45.010Z,103645.70
2018-09-25T08:45:54.371Z,103651.44
2018-09-25T08:47:03.585Z,103650.91
2018-09-25T08:48:12.866Z,103648.20
2018-09-25T08:49:22.490Z,103656.52
2018-09-25T08:50:32.003Z,103656.02
2018-09-25T08:51:41.280Z,103653.70
2018-09-25T08:52:50.626Z,103660.27
2018-09-25T08:53:59.975Z,103657.98
2018-09-25T08:55:09.328Z,103653.50
2018-09-25T08:56:18.617Z,103651.67
2018-09-25T08:57:27.907Z,103652.47
2018-09-25T08:58:37.379Z,103647.56
2018-09-25T08:59:46.854Z,103659.00
2018-09-25T09:00:56.406Z,103652.34
2018-09-25T09:02:05.721Z,103657.55
2018-09-25T09:03:14.939Z,103657.96
2018-09-25T09:04:24.477Z,103660.09
2018-09-25T09:05:34.844Z,103649.86
2018-09-25T09:06:44.269Z,103653.31
2018-09-25T09:07:53.591Z,103653.73
2018-09-25T09:09:03.139Z,103647.16
2018-09-25T09:10:12.789Z,103652.27
2018-09-25T09:11:22.083Z,103655.34
2018-09-25T09:12:31.438Z,103656.60
2018-09-25T09:13:40.772Z,103650.36
2018-09-25T09:14:50.100Z,103652.11
2018-09-25T09:15:59.459Z,103651.53
2018-09-25T09:17:09.029Z,103654.98
2018-09-25T09:18:18.503Z,103654.06
2018-09-25T09:19:27.888Z,103657.52
2018-09-25T09:20:37.451Z,103658.27
2018-09-25T09:21:46.963Z,103660.87
2018-09-25T09:22:56.270Z,103655.48
2018-09-25T09:24:05.621Z,103655.44
2018-09-25T09:25:15.420Z,103654.48
2018-09-25T09:26:24.884Z,103663.29
2018-09-25T09:27:34.206Z,103649.06
2018-09-25T09:28:43.602Z,103651.65
2018-09-25T09:29:53.155Z,103653.39
2018-09-25T09:31:06.564Z,103651.06
2018-09-25T09:32:16.179Z,103654.13
2018-09-25T09:33:25.793Z,103650.52
2018-09-25T09:34:35.209Z,103651.85
2018-09-25T09:35:44.784Z,103654.01
2018-09-25T09:36:54.525Z,103646.41
2018-09-25T09:38:04.076Z,103647.23
2018-09-25T09:39:14.068Z,103651.55
2018-09-25T09:40:23.390Z,103654.17
2018-09-25T09:41:32.869Z,103652.70
2018-09-25T09:42:42.008Z,103654.78
2018-09-25T09:43:51.336Z,103647.17
2018-09-25T09:45:00.647Z,103649.79
2018-09-25T09:46:09.983Z,103653.65
2018-09-25T09:47:19.366Z,103646.48
2018-09-25T09:48:28.970Z,103644.65
2018-09-25T09:49:38.633Z,103651.22
2018-09-25T09:50:47.991Z,103644.52
2018-09-25T09:51:57.295Z,103649.30
2018-09-25T09:53:06.599Z,103644.39
2018-09-25T09:54:15.933Z,103650.91
2018-09-25T09:55:25.212Z,103657.90
2018-09-25T09:56:34.521Z,103656.89
2018-09-25T09:57:44.051Z,103658.64
2018-09-25T09:58:54.045Z,103655.44
2018-09-25T10:00:03.516Z,103661.17
2018-09-25T10:01:12.928Z,103652.63
2018-09-25T10:02:22.370Z,103657.45
2018-09-25T10:03:31.837Z,103647.20
2018-09-25T10:04:41.336Z,103651.99
2018-09-25T10:05:51.081Z,103651.45
2018-09-25T10:07:00.793Z,103655.39
2018-09-25T10:08:10.578Z,103657.52
2018-09-25T10:09:20.049Z,103663.99
2018-09-25T10:10:29.608Z,103654.53
2018-09-25T10:11:38.963Z,103649.98
2018-09-25T10:12:48.384Z,103653.94
2018-09-25T10:13:57.865Z,103649.61
2018-09-25T10:15:07.267Z,103660.87
2018-09-25T10:16:16.570Z,103655.86
2018-09-25T10:17:26.803Z,103658.94
2018-09-25T10:18:36.268Z,103658.39
2018-09-25T10:19:45.636Z,103654.31
2018-09-25T10:20:55.212Z,103656.00
2018-09-25T10:22:04.527Z,103659.05
2018-09-25T10:23:13.900Z,103655.45
2018-09-25T10:24:23.242Z,103655.31
2018-09-25T10:25:32.451Z,103652.97
2018-09-25T10:26:41.802Z,103655.04
2018-09-25T10:27:51.162Z,103655.31
2018-09-25T10:29:00.738Z,103649.84
2018-09-25T10:30:10.131Z,103647.95
2018-09-25T10:31:19.399Z,103647.91
2018-09-25T10:32:30.716Z,103645.56
2018-09-25T10:33:40.525Z,103648.64
2018-09-25T10:34:49.835Z,103644.49
2018-09-25T10:35:59.295Z,103648.77
2018-09-25T10:37:08.907Z,103648.06
2018-09-25T10:38:18.226Z,103647.41
2018-09-25T10:39:27.578Z,103647.64
2018-09-25T10:40:36.932Z,103642.98
2018-09-25T10:41:46.206Z,103650.78
2018-09-25T10:42:55.598Z,103649.30
2018-09-25T10:44:06.161Z,103650.95
2018-09-25T10:45:15.585Z,103647.61
2018-09-25T10:46:24.882Z,103645.62
2018-09-25T10:47:34.316Z,103646.25
2018-09-25T10:48:43.758Z,103646.05
2018-09-25T10:49:53.195Z,103646.77
2018-09-25T10:51:02.695Z,103648.88
2018-09-25T10:52:12.078Z,103648.82
2018-09-25T10:53:21.928Z,103647.80
2018-09-25T10:54:31.374Z,103648.20
2018-09-25T10:55:40.864Z,103645.85
2018-09-25T10:56:50.406Z,103646.17
2018-09-25T10:57:59.856Z,103648.69
2018-09-25T10:59:09.146Z,103647.30
2018-09-25T11:00:18.573Z,103651.05
2018-09-25T11:01:27.784Z,103648.64
2018-09-25T11:02:37.118Z,103647.93
2018-09-25T11:03:46.452Z,103642.38
2018-09-25T11:04:55.823Z,103641.20
2018-09-25T11:06:05.281Z,103640.58
2018-09-25T11:07:14.596Z,103638.16
2018-09-25T11:08:23.968Z,103633.94
2018-09-25T11:09:33.231Z,103638.66
2018-09-25T11:10:42.809Z,103637.06
2018-09-25T11:11:52.278Z,103636.53
2018-09-25T11:13:01.769Z,103637.72
2018-09-25T11:14:11.251Z,103633.61
2018-09-25T11:15:20.506Z,103632.74
2018-09-25T11:16:29.849Z,103639.05
2018-09-25T11:17:39.330Z,103638.65
2018-09-25T11:18:48.689Z,103635.66
2018-09-25T11:19:58.020Z,103634.48
2018-09-25T11:21:07.388Z,103632.81
2018-09-25T11:22:16.732Z,103631.97
2018-09-25T11:23:26.056Z,103635.98
2018-09-25T11:24:35.412Z,103631.97
2018-09-25T11:25:44.908Z,103633.22
2018-09-25T11:26:54.468Z,103624.27
2018-09-25T11:28:03.785Z,103630.38
2018-09-25T11:29:13.316Z,103629.45
2018-09-25T11:30:22.654Z,103632.90
2018-09-25T11:31:32.671Z,103625.69
2018-09-25T11:32:41.931Z,103626.47
2018-09-25T11:33:51.318Z,103626.31
2018-09-25T11:35:00.838Z,103622.23
2018-09-25T11:36:10.146Z,103623.57
2018-09-25T11:37:19.468Z,103623.48
2018-09-25T11:38:28.811Z,103620.80
2018-09-25T11:39:38.200Z,103619.47
2018-09-25T11:40:47.664Z,103614.53
2018-09-25T11:41:56.946Z,103616.27
2018-09-25T11:43:06.335Z,103612.26
2018-09-25T11:44:15.553Z,103613.90
2018-09-25T11:45:24.924Z,103608.09
2018-09-25T11:46:34.499Z,103605.78
2018-09-25T11:47:43.962Z,103603.11
2018-09-25T11:48:53.589Z,103594.27
2018-09-25T11:50:02.859Z,103589.39
2018-09-25T11:51:12.213Z,103593.39
2018-09-25T11:52:22.467Z,103599.11
2018-09-25T11:53:31.897Z,103597.30
2018-09-25T11:54:41.110Z,103596.44
2018-09-25T11:55:50.661Z,103599.91
2018-09-25T11:57:00.081Z,103595.34
2018-09-25T11:58:09.521Z,103608.94
2018-09-25T11:59:18.984Z,103603.03
2018-09-25T12:00:28.498Z,103604.70
2018-09-25T12:01:37.818Z,103611.29
2018-09-25T12:02:47.088Z,103606.34
2018-09-25T12:03:56.375Z,103604.08
2018-09-25T12:05:05.659Z,103595.59
2018-09-25T12:06:15.089Z,103591.92
2018-09-25T12:07:24.523Z,103586.57
2018-09-25T12:08:33.905Z,103587.34
2018-09-25T12:09:43.431Z,103590.41
2018-09-25T12:10:52.807Z,103584.10
2018-09-25T12:12:02.292Z,103587.58
2018-09-25T12:13:11.775Z,103591.48
2018-09-25T12:14:21.262Z,103586.14
2018-09-25T12:15:30.772Z,103588.34
2018-09-25T12:16:40.214Z,103591.89
2018-09-25T12:17:49.604Z,103589.22
2018-09-25T12:18:58.919Z,103586.55
2018-09-25T12:20:08.209Z,103587.78
2018-09-25T12:21:17.621Z,103587.71
2018-09-25T12:22:27.124Z,103585.11
2018-09-25T12:23:36.575Z,103584.17
2018-09-25T12:24:46.009Z,103586.28
2018-09-25T12:25:55.403Z,103581.73
2018-09-25T12:27:04.714Z,103583.47
2018-09-25T12:28:14.034Z,103586.05
2018-09-25T12:29:23.465Z,103584.64
2018-09-25T12:30:32.896Z,103579.29
2018-09-25T12:31:42.289Z,103567.73
2018-09-25T12:32:51.702Z,103571.64
2018-09-25T12:34:01.019Z,103564.95
2018-09-25T12:35:10.398Z,103566.69
2018-09-25T12:36:19.712Z,103560.00
2018-09-25T12:37:29.047Z,103562.21
2018-09-25T12:38:38.536Z,103558.20
2018-09-25T12:39:47.914Z,103556.39
2018-09-25T12:40:57.431Z,103551.98
2018-09-25T12:42:06.874Z,103555.59
2018-09-25T12:43:16.614Z,103556.56
2018-09-25T12:44:26.152Z,103560.58
2018-09-25T12:45:35.583Z,103554.25
2018-09-25T12:46:45.118Z,103556.86
2018-09-25T12:47:54.384Z,103554.09
2018-09-25T12:49:03.728Z,103550.88
2018-09-25T12:50:13.059Z,103552.58
2018-09-25T12:51:22.342Z,103550.30
2018-09-25T12:52:31.696Z,103547.93
2018-09-25T12:53:40.906Z,103549.20
2018-09-25T12:54:50.163Z,103555.31
2018-09-25T12:55:59.461Z,103556.88
2018-09-25T12:57:08.688Z,103548.79
2018-09-25T12:58:18.018Z,103544.61
2018-09-25T12:59:27.235Z,103541.28
2018-09-25T13:00:36.645Z,103536.30
2018-09-25T13:01:45.997Z,103535.77
2018-09-25T13:02:55.352Z,103538.34
2018-09-25T13:04:04.664Z,103539.03
2018-09-25T13:05:14.097Z,103537.98
2018-09-25T13:06:23.400Z,103533.80
2018-09-25T13:07:32.999Z,103523.79
2018-09-25T13:08:42.527Z,103527.27
2018-09-25T13:09:52.006Z,103514.25
2018-09-25T13:11:01.465Z,103523.07
2018-09-25T13:12:10.853Z,103525.57